createdAt,value
2023-01-28T00:01:51.870Z,2.20
2023-01-28T00:04:21.239Z,2.20
2023-01-28T00:06:49.276Z,2.20
2023-01-28T00:09:17.480Z,2.20
2023-01-28T00:11:45.480Z,2.20
2023-01-28T00:14:14.072Z,2.20
2023-01-28T00:16:42.146Z,2.20
2023-01-28T00:19:10.463Z,2.20
2023-01-28T00:21:39.899Z,2.20
2023-01-28T00:24:09.528Z,2.20
2023-01-28T00:26:37.955Z,2.20
2023-01-28T00:29:06.603Z,2.10
2023-01-28T00:31:35.362Z,2.20
2023-01-28T00:34:03.455Z,2.20
2023-01-28T00:36:31.503Z,2.20
2023-01-28T00:39:01.189Z,2.20
2023-01-28T00:41:30.836Z,2.10
2023-01-28T00:44:00.194Z,2.10
2023-01-28T00:46:28.350Z,2.20
2023-01-28T00:48:56.456Z,2.10
2023-01-28T00:51:24.797Z,2.10
2023-01-28T00:53:53.053Z,2.10
2023-01-28T00:56:22.477Z,2.10
2023-01-28T00:58:50.655Z,2.10
2023-01-28T01:01:20.916Z,2.10
2023-01-28T01:03:54.366Z,2.10
2023-01-28T01:06:23.506Z,2.10
2023-01-28T01:08:51.696Z,2.10
2023-01-28T01:11:20.309Z,2.10
2023-01-28T01:13:54.839Z,2.10
2023-01-28T01:16:24.173Z,2.10
2023-01-28T01:18:53.821Z,2.10
2023-01-28T01:21:24.494Z,2.00
2023-01-28T01:23:53.350Z,2.10
2023-01-28T01:26:23.027Z,2.10
2023-01-28T01:28:53.366Z,2.00
2023-01-28T01:31:23.135Z,2.00
2023-01-28T01:33:52.404Z,2.00
2023-01-28T01:36:22.125Z,2.00
2023-01-28T01:38:54.684Z,2.00
2023-01-28T01:41:29.802Z,2.00
2023-01-28T01:44:00.854Z,2.00
2023-01-28T01:46:36.617Z,2.00
2023-01-28T01:49:13.595Z,2.00
2023-01-28T01:51:42.379Z,2.00
2023-01-28T01:54:10.757Z,2.00
2023-01-28T01:56:42.017Z,2.00
2023-01-28T01:59:15.093Z,2.00
2023-01-28T02:01:51.032Z,2.00
2023-01-28T02:04:23.587Z,2.00
2023-01-28T02:06:52.253Z,2.00
2023-01-28T02:09:26.149Z,2.00
2023-01-28T02:11:56.794Z,2.00
2023-01-28T02:14:31.647Z,2.00
2023-01-28T02:17:01.418Z,2.00
2023-01-28T02:19:35.144Z,1.90
2023-01-28T02:22:13.172Z,1.90
2023-01-28T02:25:02.816Z,1.90
2023-01-28T02:27:36.656Z,1.90
2023-01-28T02:30:11.885Z,1.80
2023-01-28T02:32:44.805Z,1.80
2023-01-28T02:35:19.289Z,1.80
2023-01-28T02:37:54.501Z,1.80
2023-01-28T02:40:27.734Z,1.80
2023-01-28T02:42:57.350Z,1.70
2023-01-28T02:45:52.987Z,1.70
2023-01-28T02:48:23.556Z,1.70
2023-01-28T02:51:02.222Z,1.70
2023-01-28T02:53:43.226Z,1.60
2023-01-28T02:56:21.275Z,1.60
2023-01-28T02:59:00.575Z,1.60
2023-01-28T03:01:36.759Z,1.60
2023-01-28T03:04:09.299Z,1.50
2023-01-28T03:06:42.500Z,1.50
2023-01-28T03:09:27.087Z,1.50
2023-01-28T03:12:16.266Z,1.50
2023-01-28T03:15:05.210Z,1.50
2023-01-28T03:18:05.039Z,1.50
2023-01-28T03:20:57.161Z,1.40
2023-01-28T03:23:50.331Z,1.40
2023-01-28T03:26:40.395Z,1.40
2023-01-28T03:29:30.883Z,1.30
2023-01-28T03:32:18.155Z,1.40
2023-01-28T03:35:05.652Z,1.40
2023-01-28T03:37:35.087Z,1.40
2023-01-28T03:40:23.503Z,1.30
2023-01-28T03:42:52.442Z,1.30
2023-01-28T03:45:34.845Z,1.40
2023-01-28T03:48:06.064Z,1.30
2023-01-28T03:50:36.829Z,1.40
2023-01-28T03:53:16.345Z,1.40
2023-01-28T03:55:50.769Z,1.30
2023-01-28T03:58:20.336Z,1.30
2023-01-28T04:00:48.950Z,1.30
2023-01-28T04:03:20.099Z,1.30
2023-01-28T04:06:12.555Z,1.40
2023-01-28T04:09:06.821Z,1.40
2023-01-28T04:12:01.024Z,1.40
2023-01-28T04:14:34.632Z,1.40
2023-01-28T04:17:10.541Z,1.40
2023-01-28T04:19:40.369Z,1.40
2023-01-28T04:22:12.600Z,1.30
2023-01-28T04:24:42.486Z,1.40
2023-01-28T04:27:10.640Z,1.40
2023-01-28T04:29:38.705Z,1.40
2023-01-28T04:32:25.215Z,1.30
2023-01-28T04:35:11.520Z,1.30
2023-01-28T04:37:52.893Z,1.30
2023-01-28T04:40:50.959Z,1.30
2023-01-28T04:43:37.561Z,1.30
2023-01-28T04:46:20.560Z,1.30
2023-01-28T04:49:02.091Z,1.20
2023-01-28T04:51:53.354Z,1.20
2023-01-28T04:54:43.762Z,1.20
2023-01-28T04:57:12.596Z,1.20
2023-01-28T04:59:40.742Z,1.10
2023-01-28T05:02:09.136Z,1.10
2023-01-28T05:04:37.249Z,1.10
2023-01-28T05:07:05.617Z,1.10
2023-01-28T05:09:34.516Z,1.10
2023-01-28T05:12:05.423Z,1.10
2023-01-28T05:14:34.993Z,1.10
2023-01-28T05:17:07.946Z,1.10
2023-01-28T05:19:36.900Z,1.10
2023-01-28T05:22:08.844Z,1.10
2023-01-28T05:24:42.944Z,1.00
2023-01-28T05:27:13.130Z,1.00
2023-01-28T05:29:41.505Z,1.00
2023-01-28T05:32:10.420Z,1.00
2023-01-28T05:34:38.532Z,0.90
2023-01-28T05:37:12.336Z,0.90
2023-01-28T05:39:40.747Z,0.90
2023-01-28T05:42:09.182Z,0.90
2023-01-28T05:44:44.150Z,0.80
2023-01-28T05:47:24.626Z,0.80
2023-01-28T05:50:00.524Z,0.80
2023-01-28T05:52:28.667Z,0.70
2023-01-28T05:54:57.695Z,0.70
2023-01-28T05:57:27.373Z,0.70
2023-01-28T05:59:56.825Z,0.60
2023-01-28T06:02:25.251Z,0.60
2023-01-28T06:04:56.676Z,0.60
2023-01-28T06:07:25.069Z,0.50
2023-01-28T06:09:53.231Z,0.50
2023-01-28T06:12:22.879Z,0.50
2023-01-28T06:15:12.502Z,0.40
2023-01-28T06:17:58.338Z,0.40
2023-01-28T06:20:32.567Z,0.30
2023-01-28T06:23:01.828Z,0.30
2023-01-28T06:25:30.373Z,0.30
2023-01-28T06:28:04.060Z,0.30
2023-01-28T06:30:33.527Z,0.20
2023-01-28T06:33:01.900Z,0.20
2023-01-28T06:35:29.966Z,0.20
2023-01-28T06:37:58.365Z,0.10
2023-01-28T06:40:26.914Z,0.10
2023-01-28T06:42:54.923Z,0.10
2023-01-28T06:45:22.924Z,0.00
2023-01-28T06:47:52.326Z,0.00
2023-01-28T06:50:20.701Z,0.00
2023-01-28T06:52:48.700Z,-0.10
2023-01-28T06:55:17.023Z,-0.10
2023-01-28T06:57:45.598Z,-0.10
2023-01-28T07:00:16.219Z,-0.20
2023-01-28T07:02:44.728Z,-0.20
2023-01-28T07:05:14.131Z,-0.20
2023-01-28T07:07:42.418Z,1.40
2023-01-28T07:10:11.968Z,-0.30
2023-01-28T07:12:40.337Z,-0.30
2023-01-28T07:15:10.906Z,-0.30
2023-01-28T07:17:41.069Z,-0.40
2023-01-28T07:20:12.061Z,-0.40
2023-01-28T07:22:42.270Z,-0.40
2023-01-28T07:25:11.768Z,-0.40
2023-01-28T07:27:39.871Z,-0.40
2023-01-28T07:30:09.150Z,-0.40
2023-01-28T07:32:37.154Z,-0.40
2023-01-28T07:35:05.586Z,-0.40
2023-01-28T07:37:33.638Z,-0.50
2023-01-28T07:40:03.457Z,-0.40
2023-01-28T07:42:31.673Z,-0.40
2023-01-28T07:45:05.316Z,-0.40
2023-01-28T07:47:33.573Z,-0.40
2023-01-28T07:50:02.255Z,-0.40
2023-01-28T07:52:30.302Z,-0.40
2023-01-28T07:54:58.351Z,-0.40
2023-01-28T07:57:30.182Z,-0.40
2023-01-28T07:59:58.649Z,-0.40
2023-01-28T08:02:26.927Z,-0.40
2023-01-28T08:04:55.163Z,-0.30
2023-01-28T08:07:23.239Z,-0.30
2023-01-28T08:09:52.591Z,-0.30
2023-01-28T08:12:20.634Z,-0.30
2023-01-28T08:14:50.126Z,-0.30
2023-01-28T08:17:18.161Z,-0.20
2023-01-28T08:19:46.187Z,-0.20
2023-01-28T08:22:14.243Z,-0.20
2023-01-28T08:24:42.358Z,-0.20
2023-01-28T08:27:10.422Z,-0.20
2023-01-28T08:29:38.432Z,-0.20
2023-01-28T08:32:07.870Z,-0.10
2023-01-28T08:34:35.974Z,-0.10
2023-01-28T08:37:05.811Z,-0.10
2023-01-28T08:39:33.847Z,-0.10
2023-01-28T08:42:01.894Z,-0.10
2023-01-28T08:44:29.994Z,-0.10
2023-01-28T08:46:58.173Z,-0.10
2023-01-28T08:49:27.630Z,-0.10
2023-01-28T08:51:56.050Z,0.00
2023-01-28T08:54:24.290Z,0.00
2023-01-28T08:56:53.126Z,0.00
2023-01-28T08:59:21.245Z,0.00
2023-01-28T09:01:49.437Z,0.10
2023-01-28T09:04:17.491Z,0.10
2023-01-28T09:06:46.911Z,0.10
2023-01-28T09:09:15.007Z,0.20
2023-01-28T09:11:43.051Z,0.20
2023-01-28T09:14:11.115Z,0.20
2023-01-28T09:17:10.233Z,0.20
2023-01-28T09:19:38.286Z,0.30
2023-01-28T09:22:07.856Z,0.30
2023-01-28T09:24:38.769Z,0.40
2023-01-28T09:27:07.490Z,0.40
2023-01-28T09:29:35.563Z,0.40
2023-01-28T09:32:03.682Z,0.40
2023-01-28T09:34:31.888Z,0.50
2023-01-28T09:37:00.214Z,0.50
2023-01-28T09:40:32.734Z,0.60
2023-01-28T09:43:21.965Z,0.60
2023-01-28T09:45:52.222Z,0.70
2023-01-28T09:48:24.843Z,0.80
2023-01-28T09:50:55.301Z,0.80
2023-01-28T09:53:27.352Z,0.90
2023-01-28T09:55:58.261Z,0.90
2023-01-28T09:58:27.769Z,0.90
2023-01-28T10:01:02.607Z,1.00
2023-01-28T10:03:41.078Z,1.10
2023-01-28T10:06:21.300Z,1.10
2023-01-28T10:09:07.794Z,1.20
2023-01-28T10:11:52.648Z,1.20
2023-01-28T10:14:32.301Z,1.30
2023-01-28T10:17:09.000Z,1.30
2023-01-28T10:19:44.886Z,1.40
2023-01-28T10:22:17.916Z,1.40
2023-01-28T10:24:50.438Z,1.50
2023-01-28T10:27:22.284Z,1.50
2023-01-28T10:29:52.785Z,1.60
2023-01-28T10:32:27.410Z,1.60
2023-01-28T10:34:55.501Z,1.60
2023-01-28T10:37:23.846Z,1.60
2023-01-28T10:39:54.154Z,1.70
2023-01-28T10:42:29.446Z,1.70
2023-01-28T10:45:02.308Z,1.80
2023-01-28T10:47:34.831Z,1.80
2023-01-28T10:50:05.484Z,1.90
2023-01-28T10:52:33.608Z,1.90
2023-01-28T10:55:02.858Z,2.00
2023-01-28T10:57:31.137Z,2.00
2023-01-28T11:00:11.695Z,2.10
2023-01-28T11:02:40.215Z,2.10
2023-01-28T11:05:17.657Z,2.10
2023-01-28T11:07:45.810Z,2.20
2023-01-28T11:10:27.654Z,2.20
2023-01-28T11:12:59.528Z,2.20
2023-01-28T11:15:29.410Z,2.20
2023-01-28T11:18:00.519Z,2.20
2023-01-28T11:20:31.875Z,2.20
2023-01-28T11:23:00.013Z,2.20
2023-01-28T11:25:32.390Z,2.20
2023-01-28T11:28:02.358Z,2.20
2023-01-28T11:30:34.506Z,2.30
2023-01-28T11:33:15.370Z,2.30
2023-01-28T11:35:43.427Z,2.40
2023-01-28T11:38:19.321Z,2.40
2023-01-28T11:40:51.854Z,2.50
2023-01-28T11:43:21.871Z,2.50
2023-01-28T11:46:04.049Z,2.60
2023-01-28T11:48:42.901Z,2.60
2023-01-28T11:51:25.110Z,2.70
2023-01-28T11:54:19.197Z,2.70
2023-01-28T11:57:03.307Z,2.80
2023-01-28T11:59:55.634Z,2.80
2023-01-28T12:02:40.395Z,2.90
2023-01-28T12:05:29.170Z,2.90
2023-01-28T12:08:07.693Z,3.00
2023-01-28T12:10:42.475Z,3.00
2023-01-28T12:13:26.797Z,3.00
2023-01-28T12:16:12.621Z,3.00
2023-01-28T12:19:10.257Z,3.00
2023-01-28T12:21:52.006Z,3.10
2023-01-28T12:24:36.535Z,3.10
2023-01-28T12:27:14.426Z,3.20
2023-01-28T12:29:53.871Z,3.20
2023-01-28T12:32:39.454Z,3.20
2023-01-28T12:35:36.957Z,3.30
2023-01-28T12:38:14.631Z,3.30
2023-01-28T12:41:00.291Z,3.30
2023-01-28T12:43:47.010Z,3.30
2023-01-28T12:46:26.216Z,3.30
2023-01-28T12:49:01.133Z,3.40
2023-01-28T12:51:33.932Z,3.40
2023-01-28T12:54:06.335Z,3.50
2023-01-28T12:56:38.923Z,3.50
2023-01-28T12:59:13.810Z,3.60
2023-01-28T13:01:48.423Z,3.60
2023-01-28T13:04:26.481Z,3.60
2023-01-28T13:06:59.998Z,3.70
2023-01-28T13:09:29.759Z,3.70
2023-01-28T13:11:59.662Z,3.70
2023-01-28T13:14:31.576Z,3.80
2023-01-28T13:17:10.280Z,3.80
2023-01-28T13:19:40.332Z,3.80
2023-01-28T13:22:26.789Z,3.90
2023-01-28T13:24:54.962Z,3.90
2023-01-28T13:27:25.649Z,3.90
2023-01-28T13:30:03.599Z,3.90
2023-01-28T13:32:35.199Z,3.90
2023-01-28T13:35:07.477Z,3.90
2023-01-28T13:37:40.121Z,3.90
2023-01-28T13:40:23.941Z,3.90
2023-01-28T13:43:00.582Z,4.00
2023-01-28T13:45:28.891Z,4.00
2023-01-28T13:48:02.389Z,4.00
2023-01-28T13:50:40.206Z,4.00
2023-01-28T13:53:24.964Z,4.00
2023-01-28T13:55:56.364Z,4.00
2023-01-28T13:58:41.830Z,4.00
2023-01-28T14:01:54.459Z,4.10
2023-01-28T14:04:53.973Z,4.10
2023-01-28T14:07:49.524Z,4.10
2023-01-28T14:10:35.572Z,4.10
2023-01-28T14:13:31.964Z,4.20
2023-01-28T14:16:26.365Z,4.20
2023-01-28T14:18:56.972Z,4.30
2023-01-28T14:21:28.355Z,4.30
2023-01-28T14:23:58.774Z,4.30
2023-01-28T14:26:46.257Z,4.30
2023-01-28T14:29:23.287Z,4.30
2023-01-28T14:31:52.739Z,4.20
2023-01-28T14:34:25.949Z,4.20
2023-01-28T14:36:57.210Z,4.20
2023-01-28T14:39:28.271Z,4.20
2023-01-28T14:42:01.024Z,4.20
2023-01-28T14:44:33.072Z,4.20
2023-01-28T14:47:24.664Z,4.10
2023-01-28T14:50:07.032Z,4.20
2023-01-28T14:52:50.120Z,4.20
2023-01-28T14:55:31.234Z,4.10
2023-01-28T14:58:04.805Z,4.10
2023-01-28T15:00:35.477Z,4.10
2023-01-28T15:03:24.225Z,4.10
2023-01-28T15:06:03.746Z,4.10
2023-01-28T15:08:32.489Z,4.10
2023-01-28T15:11:02.758Z,4.00
2023-01-28T15:13:35.404Z,4.00
2023-01-28T15:16:03.606Z,4.00
2023-01-28T15:18:35.202Z,4.00
2023-01-28T15:21:04.441Z,4.00
2023-01-28T15:23:35.125Z,4.00
2023-01-28T15:26:07.320Z,4.00
2023-01-28T15:28:40.489Z,4.00
2023-01-28T15:31:08.699Z,4.00
2023-01-28T15:33:36.809Z,4.00
2023-01-28T15:36:06.343Z,4.00
2023-01-28T15:38:34.465Z,4.00
2023-01-28T15:41:04.179Z,4.00
2023-01-28T15:43:34.744Z,4.00
2023-01-28T15:46:04.978Z,4.00
2023-01-28T15:48:36.063Z,4.00
2023-01-28T15:51:07.087Z,4.00
2023-01-28T15:53:37.777Z,4.00
2023-01-28T15:56:08.035Z,4.00
2023-01-28T15:58:41.131Z,4.00
2023-01-28T16:01:21.948Z,3.90
2023-01-28T16:04:03.944Z,3.90
2023-01-28T16:06:36.288Z,3.90
2023-01-28T16:09:07.210Z,3.90
2023-01-28T16:11:41.461Z,3.90
2023-01-28T16:14:23.507Z,3.90
2023-01-28T16:16:54.411Z,3.90
2023-01-28T16:19:33.180Z,3.90
2023-01-28T16:22:02.402Z,3.90
2023-01-28T16:24:32.712Z,3.90
2023-01-28T16:27:03.098Z,3.80
2023-01-28T16:29:32.182Z,3.80
2023-01-28T16:32:03.661Z,3.80
2023-01-28T16:34:31.818Z,3.80
2023-01-28T16:37:01.620Z,3.80
2023-01-28T16:39:30.449Z,3.80
2023-01-28T16:41:59.443Z,3.80
2023-01-28T16:44:27.488Z,3.80
2023-01-28T16:46:55.660Z,3.70
2023-01-28T16:49:25.668Z,3.70
2023-01-28T16:51:54.303Z,3.70
2023-01-28T16:54:22.747Z,3.60
2023-01-28T16:56:50.881Z,3.60
2023-01-28T16:59:19.011Z,3.60
2023-01-28T17:01:47.873Z,3.60
2023-01-28T17:04:16.425Z,3.60
2023-01-28T17:06:46.391Z,3.60
2023-01-28T17:09:15.906Z,3.50
2023-01-28T17:11:44.102Z,3.60
2023-01-28T17:14:12.585Z,3.50
2023-01-28T17:16:40.860Z,3.50
2023-01-28T17:19:08.951Z,3.50
2023-01-28T17:21:37.131Z,3.50
2023-01-28T17:24:07.444Z,3.50
2023-01-28T17:26:36.616Z,3.50
2023-01-28T17:29:05.723Z,3.50
2023-01-28T17:31:34.160Z,3.50
2023-01-28T17:34:02.551Z,3.50
2023-01-28T17:36:30.641Z,3.60
2023-01-28T17:38:58.748Z,3.50
2023-01-28T17:41:28.223Z,3.50
2023-01-28T17:43:57.995Z,3.50
2023-01-28T17:46:27.249Z,3.40
2023-01-28T17:48:55.329Z,3.40
2023-01-28T17:51:23.760Z,3.40
2023-01-28T17:53:53.611Z,3.40
2023-01-28T17:56:23.188Z,3.40
2023-01-28T17:58:53.622Z,3.40
2023-01-28T18:01:22.345Z,3.40
2023-01-28T18:03:50.420Z,3.40
2023-01-28T18:06:18.804Z,3.40
2023-01-28T18:08:46.914Z,3.40
2023-01-28T18:11:17.503Z,3.40
2023-01-28T18:13:46.985Z,3.40
2023-01-28T18:16:19.392Z,3.40
2023-01-28T18:18:48.474Z,3.40
2023-01-28T18:21:22.733Z,3.40
2023-01-28T18:23:53.877Z,3.40
2023-01-28T18:26:23.691Z,3.40
2023-01-28T18:28:51.845Z,3.40
2023-01-28T18:31:21.480Z,3.40
2023-01-28T18:33:49.868Z,3.40
2023-01-28T18:36:18.123Z,3.30
2023-01-28T18:38:46.565Z,3.30
2023-01-28T18:41:15.566Z,3.30
2023-01-28T18:43:43.892Z,3.40
2023-01-28T18:46:13.351Z,3.40
2023-01-28T18:48:42.840Z,3.30
2023-01-28T18:51:27.630Z,3.30
2023-01-28T18:53:58.814Z,3.30
2023-01-28T18:56:27.253Z,3.30
2023-01-28T18:58:58.673Z,3.30
2023-01-28T19:01:27.627Z,3.30
2023-01-28T19:03:58.080Z,4.10
2023-01-28T19:06:27.642Z,3.30
2023-01-28T19:08:57.493Z,3.30
2023-01-28T19:11:27.388Z,3.20
2023-01-28T19:13:56.374Z,3.30
2023-01-28T19:16:25.415Z,3.20
2023-01-28T19:18:54.551Z,3.20
2023-01-28T19:21:24.830Z,3.20
2023-01-28T19:23:57.047Z,3.20
2023-01-28T19:26:25.947Z,3.20
2023-01-28T19:28:54.845Z,3.20
2023-01-28T19:31:24.541Z,3.20
2023-01-28T19:33:56.523Z,3.20
2023-01-28T19:42:10.164Z,3.20
2023-01-28T19:44:38.257Z,3.10
2023-01-28T19:47:06.726Z,3.10
2023-01-28T19:49:34.997Z,3.20
2023-01-28T19:52:03.053Z,3.10
2023-01-28T19:54:31.079Z,3.10
2023-01-28T19:56:59.135Z,3.10
2023-01-28T19:59:28.599Z,3.10
2023-01-28T20:01:56.797Z,3.10
2023-01-28T20:04:24.951Z,3.10
2023-01-28T20:06:53.051Z,3.10
2023-01-28T20:09:21.263Z,3.10
2023-01-28T20:11:49.280Z,3.10
2023-01-28T20:14:18.260Z,3.10
2023-01-28T20:16:47.959Z,3.10
2023-01-28T20:19:18.054Z,3.10
2023-01-28T20:21:47.149Z,3.00
2023-01-28T20:24:16.618Z,3.00
2023-01-28T20:26:45.153Z,3.10
2023-01-28T20:29:19.859Z,3.10
2023-01-28T20:32:04.365Z,3.10
2023-01-28T20:34:37.535Z,3.10
2023-01-28T20:37:06.539Z,3.10
2023-01-28T20:39:34.784Z,3.10
2023-01-28T20:42:03.056Z,3.10
2023-01-28T20:44:32.138Z,3.10
2023-01-28T20:47:01.572Z,3.10
2023-01-28T20:49:29.932Z,3.10
2023-01-28T20:51:58.353Z,3.10
2023-01-28T20:54:26.546Z,3.10
2023-01-28T20:56:54.776Z,3.10
2023-01-28T20:59:23.956Z,3.20
2023-01-28T21:01:52.199Z,3.10
2023-01-28T21:04:21.581Z,3.20
2023-01-28T21:06:49.666Z,3.10
2023-01-28T21:09:17.698Z,3.20
2023-01-28T21:11:45.806Z,3.20
2023-01-28T21:14:16.891Z,3.20
2023-01-28T21:16:45.018Z,3.20
2023-01-28T21:19:13.214Z,3.20
2023-01-28T21:21:42.957Z,3.20
2023-01-28T21:24:12.346Z,3.20
2023-01-28T21:26:40.565Z,3.20
2023-01-28T21:29:08.658Z,3.20
2023-01-28T21:31:37.081Z,3.20
2023-01-28T21:34:05.081Z,3.20
2023-01-28T21:36:34.370Z,3.20
2023-01-28T21:39:05.261Z,3.20
2023-01-28T21:41:33.636Z,3.20
2023-01-28T21:44:01.713Z,3.20
2023-01-28T21:46:31.939Z,3.20
2023-01-28T21:49:01.859Z,3.20
2023-01-28T21:51:37.988Z,3.20
2023-01-28T21:54:10.637Z,3.20
2023-01-28T21:56:38.801Z,3.20
2023-01-28T21:59:24.364Z,3.20
2023-01-28T22:01:52.583Z,3.20
2023-01-28T22:04:20.699Z,3.20
2023-01-28T22:06:49.320Z,3.20
2023-01-28T22:09:18.737Z,3.20
2023-01-28T22:11:46.966Z,3.20
2023-01-28T22:14:15.243Z,3.20
2023-01-28T22:16:43.839Z,3.20
2023-01-28T22:19:12.451Z,3.20
2023-01-28T22:21:41.914Z,3.20
2023-01-28T22:24:12.630Z,3.20
2023-01-28T22:26:42.901Z,3.20
2023-01-28T22:29:11.762Z,3.20
2023-01-28T22:31:40.176Z,3.20
2023-01-28T22:34:08.732Z,3.20
2023-01-28T22:36:37.251Z,3.20
2023-01-28T22:39:07.691Z,3.20
2023-01-28T22:41:36.033Z,3.20
2023-01-28T22:44:06.008Z,3.20
2023-01-28T22:46:35.461Z,3.20
2023-01-28T22:49:04.260Z,3.20
2023-01-28T22:51:34.773Z,3.30
2023-01-28T22:54:05.035Z,3.20
2023-01-28T22:56:33.350Z,3.30
2023-01-28T22:59:03.202Z,3.30
2023-01-28T23:01:33.643Z,3.20
2023-01-28T23:04:01.695Z,3.30
2023-01-28T23:06:30.120Z,3.30
2023-01-28T23:08:58.345Z,3.20
2023-01-28T23:11:27.513Z,3.20
2023-01-28T23:14:14.794Z,3.20
2023-01-28T23:16:58.847Z,3.20
2023-01-28T23:19:44.573Z,3.20
2023-01-28T23:22:32.532Z,3.10
2023-01-28T23:25:00.763Z,3.10
2023-01-28T23:27:28.831Z,3.10
2023-01-28T23:29:57.034Z,3.10
2023-01-28T23:32:26.739Z,3.10
2023-01-28T23:34:54.952Z,3.00
2023-01-28T23:37:23.135Z,3.00
2023-01-28T23:39:51.170Z,3.00
2023-01-28T23:42:21.731Z,3.00
2023-01-28T23:44:49.791Z,3.00
2023-01-28T23:47:18.048Z,3.00
2023-01-28T23:49:47.485Z,3.90
2023-01-28T23:52:15.804Z,3.00
2023-01-28T23:54:43.813Z,2.90
2023-01-28T23:57:11.863Z,2.90
2023-01-28T23:59:39.886Z,2.90
